createdAt,value
2018-07-07T00:00:02.147Z,0
2018-07-07T00:01:02.138Z,0
2018-07-07T00:02:02.126Z,0
2018-07-07T00:03:01.861Z,0
2018-07-07T00:04:02.110Z,0
2018-07-07T00:05:01.851Z,0
2018-07-07T00:06:01.587Z,0
2018-07-07T00:07:02.088Z,0
2018-07-07T00:08:01.836Z,0
2018-07-07T00:09:02.074Z,0
2018-07-07T00:10:01.819Z,0
2018-07-07T00:11:01.804Z,0
2018-07-07T00:12:01.797Z,0
2018-07-07T00:13:01.792Z,0
2018-07-07T00:14:01.787Z,0
2018-07-07T00:15:01.517Z,0
2018-07-07T00:16:02.023Z,0
2018-07-07T00:17:01.508Z,0
2018-07-07T00:18:01.757Z,0
2018-07-07T00:19:01.744Z,0
2018-07-07T00:20:01.229Z,0
2018-07-07T00:21:01.994Z,0
2018-07-07T00:22:01.978Z,0
2018-07-07T00:23:01.718Z,0
2018-07-07T00:24:01.712Z,0
2018-07-07T00:25:01.444Z,0
2018-07-07T00:26:01.440Z,0
2018-07-07T00:27:01.949Z,0
2018-07-07T00:28:01.424Z,0
2018-07-07T00:29:01.927Z,0
2018-07-07T00:30:01.662Z,0
2018-07-07T00:31:01.913Z,0
2018-07-07T00:32:01.646Z,0
2018-07-07T00:33:01.384Z,0
2018-07-07T00:34:01.895Z,0
2018-07-07T00:35:01.620Z,0
2018-07-07T00:36:01.618Z,0
2018-07-07T00:37:01.869Z,0
2018-07-07T00:38:01.602Z,0
2018-07-07T00:39:01.336Z,0
2018-07-07T00:40:01.588Z,0
2018-07-07T00:41:01.886Z,0
2018-07-07T00:42:01.571Z,0
2018-07-07T00:43:01.818Z,0
2018-07-07T00:44:01.815Z,0
2018-07-07T00:45:01.292Z,0
2018-07-07T00:46:01.538Z,0
2018-07-07T00:47:01.275Z,0
2018-07-07T00:48:01.521Z,0
2018-07-07T00:49:01.771Z,0
2018-07-07T00:50:01.505Z,0
2018-07-07T00:51:00.985Z,0
2018-07-07T00:52:01.746Z,0
2018-07-07T00:53:01.274Z,0
2018-07-07T00:54:01.473Z,0
2018-07-07T00:55:01.732Z,0
2018-07-07T00:56:01.462Z,0
2018-07-07T00:57:01.460Z,0
2018-07-07T00:58:01.189Z,0
2018-07-07T00:59:01.438Z,0
2018-07-07T01:00:01.168Z,0
2018-07-07T01:01:00.908Z,0
2018-07-07T01:02:01.673Z,0
2018-07-07T01:03:01.663Z,0
2018-07-07T01:04:01.140Z,0
2018-07-07T01:05:01.644Z,0
2018-07-07T01:06:01.382Z,0
2018-07-07T01:07:01.119Z,0
2018-07-07T01:08:01.629Z,0
2018-07-07T01:09:01.613Z,0
2018-07-07T01:10:01.358Z,0
2018-07-07T01:11:01.351Z,0
2018-07-07T01:12:01.339Z,0
2018-07-07T01:13:01.336Z,0
2018-07-07T01:14:01.327Z,0
2018-07-07T01:15:01.067Z,0
2018-07-07T01:16:01.564Z,0
2018-07-07T01:17:01.567Z,0
2018-07-07T01:18:01.551Z,0
2018-07-07T01:19:01.288Z,0
2018-07-07T01:20:01.533Z,0
2018-07-07T01:21:01.273Z,0
2018-07-07T01:22:01.263Z,0
2018-07-07T01:23:01.505Z,0
2018-07-07T01:24:01.487Z,0
2018-07-07T01:25:01.483Z,0
2018-07-07T01:26:01.221Z,0
2018-07-07T01:27:01.475Z,0
2018-07-07T01:28:01.200Z,0
2018-07-07T01:29:00.930Z,0
2018-07-07T01:30:01.436Z,0
2018-07-07T01:31:01.440Z,0
2018-07-07T01:32:01.422Z,0
2018-07-07T01:33:01.412Z,0
2018-07-07T01:34:01.144Z,0
2018-07-07T01:35:01.391Z,0
2018-07-07T01:36:01.384Z,0
2018-07-07T01:37:01.136Z,0
2018-07-07T01:38:00.340Z,0
2018-07-07T01:39:01.102Z,0
2018-07-07T01:40:01.347Z,0
2018-07-07T01:41:01.343Z,0
2018-07-07T01:42:01.338Z,0
2018-07-07T01:43:01.330Z,0
2018-07-07T01:44:01.064Z,0
2018-07-07T01:45:01.305Z,0
2018-07-07T01:46:01.291Z,0
2018-07-07T01:47:01.296Z,0
2018-07-07T01:48:01.022Z,0
2018-07-07T01:49:01.012Z,0
2018-07-07T01:50:00.753Z,0
2018-07-07T01:51:00.996Z,0
2018-07-07T01:52:01.253Z,0
2018-07-07T01:53:00.983Z,0
2018-07-07T01:54:00.966Z,0
2018-07-07T01:55:01.218Z,0
2018-07-07T01:56:00.695Z,0
2018-07-07T01:57:01.195Z,0
2018-07-07T01:58:00.930Z,0
2018-07-07T01:59:01.178Z,0
2018-07-07T02:00:00.913Z,0
2018-07-07T02:01:00.905Z,0
2018-07-07T02:02:01.152Z,0
2018-07-07T02:03:01.144Z,0
2018-07-07T02:04:01.138Z,0
2018-07-07T02:05:00.613Z,0
2018-07-07T02:06:00.608Z,0
2018-07-07T02:07:01.114Z,0
2018-07-07T02:08:00.585Z,0
2018-07-07T02:09:01.095Z,0
2018-07-07T02:10:01.088Z,0
2018-07-07T02:11:00.817Z,0
2018-07-07T02:12:01.056Z,0
2018-07-07T02:13:01.057Z,0
2018-07-07T02:14:01.046Z,0
2018-07-07T02:15:00.777Z,0
2018-07-07T02:16:00.769Z,0
2018-07-07T02:17:01.019Z,0
2018-07-07T02:18:01.007Z,0
2018-07-07T02:19:01.185Z,0
2018-07-07T02:20:00.998Z,0
2018-07-07T02:21:00.977Z,0
2018-07-07T02:22:00.971Z,0
2018-07-07T02:23:00.449Z,0
2018-07-07T02:24:00.945Z,0
2018-07-07T02:25:00.686Z,0
2018-07-07T02:26:00.677Z,0
2018-07-07T02:27:00.922Z,0
2018-07-07T02:28:00.909Z,0
2018-07-07T02:29:00.646Z,0
2018-07-07T02:30:00.638Z,0
2018-07-07T02:31:00.889Z,0
2018-07-07T02:32:00.360Z,0
2018-07-07T02:33:00.608Z,0
2018-07-07T02:34:00.348Z,0
2018-07-07T02:35:00.651Z,0
2018-07-07T02:36:00.591Z,0
2018-07-07T02:37:00.576Z,0
2018-07-07T02:38:00.305Z,0
2018-07-07T02:39:00.812Z,0
2018-07-07T02:40:01.033Z,0
2018-07-07T02:41:00.534Z,0
2018-07-07T02:42:00.526Z,0
2018-07-07T02:43:00.268Z,0
2018-07-07T02:44:00.768Z,0
2018-07-07T02:45:00.497Z,0
2018-07-07T02:46:00.750Z,0
2018-07-07T02:47:00.488Z,0
2018-07-07T02:48:00.478Z,0
2018-07-07T02:49:00.483Z,0
2018-07-07T02:50:00.190Z,0
2018-07-07T02:51:00.697Z,0
2018-07-07T02:52:00.178Z,0
2018-07-07T02:53:00.701Z,0
2018-07-07T02:54:00.666Z,0
2018-07-07T02:55:00.144Z,0
2018-07-07T02:56:00.140Z,0
2018-07-07T02:57:00.398Z,0
2018-07-07T02:58:00.371Z,0
2018-07-07T02:59:00.633Z,0
2018-07-07T03:00:00.611Z,0
2018-07-07T03:01:00.603Z,0
2018-07-07T03:02:00.589Z,5
2018-07-07T03:03:00.073Z,5
2018-07-07T03:04:00.321Z,5
2018-07-07T03:04:59.797Z,5
2018-07-07T03:06:00.312Z,5
2018-07-07T03:07:00.547Z,5
2018-07-07T03:08:00.531Z,5
2018-07-07T03:09:00.276Z,5
2018-07-07T03:10:00.255Z,5
2018-07-07T03:11:00.241Z,5
2018-07-07T03:12:00.253Z,10
2018-07-07T03:13:00.227Z,10
2018-07-07T03:14:00.472Z,10
2018-07-07T03:14:59.945Z,10
2018-07-07T03:16:00.198Z,10
2018-07-07T03:17:00.198Z,10
2018-07-07T03:18:00.176Z,10
2018-07-07T03:18:59.906Z,15
2018-07-07T03:19:59.905Z,15
2018-07-07T03:21:00.404Z,15
2018-07-07T03:21:59.895Z,15
2018-07-07T03:22:59.865Z,15
2018-07-07T03:24:00.120Z,15
2018-07-07T03:25:00.357Z,15
2018-07-07T03:26:00.097Z,20
2018-07-07T03:27:00.342Z,20
2018-07-07T03:28:00.333Z,20
2018-07-07T03:29:00.061Z,20
2018-07-07T03:30:00.070Z,20
2018-07-07T03:31:00.043Z,20
2018-07-07T03:31:59.802Z,25
2018-07-07T03:33:00.027Z,25
2018-07-07T03:34:00.013Z,25
2018-07-07T03:34:59.492Z,25
2018-07-07T03:36:00.010Z,25
2018-07-07T03:37:00.235Z,25
2018-07-07T03:38:00.312Z,30
2018-07-07T03:39:00.218Z,30
2018-07-07T03:40:00.210Z,30
2018-07-07T03:41:00.209Z,30
2018-07-07T03:42:00.193Z,30
2018-07-07T03:43:00.208Z,30
2018-07-07T03:44:00.174Z,35
2018-07-07T03:45:00.155Z,35
2018-07-07T03:45:59.381Z,35
2018-07-07T03:47:00.136Z,35
2018-07-07T03:47:59.876Z,35
2018-07-07T03:48:59.862Z,35
2018-07-07T03:50:00.108Z,40
2018-07-07T03:50:59.584Z,40
2018-07-07T03:52:00.092Z,40
2018-07-07T03:52:59.825Z,40
2018-07-07T03:53:59.816Z,40
2018-07-07T03:54:59.802Z,40
2018-07-07T03:56:00.054Z,40
2018-07-07T03:56:59.528Z,45
2018-07-07T03:58:00.031Z,45
2018-07-07T03:58:59.870Z,45
2018-07-07T04:00:00.013Z,45
2018-07-07T04:00:59.498Z,45
2018-07-07T04:01:59.986Z,45
2018-07-07T04:02:59.715Z,45
2018-07-07T04:03:59.959Z,50
2018-07-07T04:04:59.949Z,50
2018-07-07T04:05:59.691Z,50
2018-07-07T04:06:59.939Z,50
2018-07-07T04:07:59.666Z,50
2018-07-07T04:08:59.660Z,50
2018-07-07T04:09:59.656Z,50
2018-07-07T04:10:59.377Z,55
2018-07-07T04:11:59.884Z,55
2018-07-07T04:12:59.612Z,55
2018-07-07T04:13:59.611Z,55
2018-07-07T04:14:59.593Z,55
2018-07-07T04:15:59.851Z,55
2018-07-07T04:16:59.575Z,55
2018-07-07T04:17:59.821Z,55
2018-07-07T04:18:59.817Z,60
2018-07-07T04:19:59.063Z,60
2018-07-07T04:20:59.285Z,60
2018-07-07T04:21:59.780Z,60
2018-07-07T04:22:59.770Z,60
2018-07-07T04:23:59.767Z,60
2018-07-07T04:24:59.494Z,65
2018-07-07T04:25:59.747Z,65
2018-07-07T04:26:59.732Z,65
2018-07-07T04:27:59.468Z,65
2018-07-07T04:28:59.451Z,65
2018-07-07T04:29:59.187Z,65
2018-07-07T04:30:59.452Z,65
2018-07-07T04:31:59.428Z,65
2018-07-07T04:32:59.410Z,70
2018-07-07T04:33:59.662Z,70
2018-07-07T04:34:59.390Z,70
2018-07-07T04:35:59.654Z,70
2018-07-07T04:36:59.628Z,70
2018-07-07T04:37:59.369Z,70
2018-07-07T04:38:59.356Z,70
2018-07-07T04:39:59.602Z,75
2018-07-07T04:40:59.332Z,75
2018-07-07T04:41:59.583Z,75
2018-07-07T04:42:59.579Z,75
2018-07-07T04:43:59.561Z,75
2018-07-07T04:44:59.303Z,75
2018-07-07T04:45:59.790Z,75
2018-07-07T04:46:59.536Z,75
2018-07-07T04:47:59.529Z,80
2018-07-07T04:48:59.010Z,80
2018-07-07T04:49:58.998Z,80
2018-07-07T04:50:59.496Z,80
2018-07-07T04:51:59.489Z,80
2018-07-07T04:52:59.487Z,80
2018-07-07T04:53:59.486Z,85
2018-07-07T04:54:59.455Z,85
2018-07-07T04:55:59.453Z,90
2018-07-07T04:56:59.183Z,85
2018-07-07T04:57:59.172Z,90
2018-07-07T04:58:59.162Z,90
2018-07-07T04:59:59.413Z,90
2018-07-07T05:00:59.402Z,90
2018-07-07T05:01:59.391Z,90
2018-07-07T05:02:59.139Z,90
2018-07-07T05:03:59.119Z,90
2018-07-07T05:04:59.118Z,90
2018-07-07T05:05:59.364Z,90
2018-07-07T05:06:58.837Z,90
2018-07-07T05:07:59.358Z,95
2018-07-07T05:08:58.819Z,95
2018-07-07T05:09:59.070Z,95
2018-07-07T05:10:59.054Z,95
2018-07-07T05:11:59.303Z,95
2018-07-07T05:12:59.301Z,95
2018-07-07T05:13:59.039Z,100
2018-07-07T05:14:59.021Z,100
2018-07-07T05:15:59.275Z,100
2018-07-07T05:16:59.255Z,100
2018-07-07T05:17:59.250Z,100
2018-07-07T05:18:58.724Z,100
2018-07-07T05:19:58.717Z,105
2018-07-07T05:20:59.226Z,105
2018-07-07T05:21:59.210Z,105
2018-07-07T05:22:59.201Z,110
2018-07-07T05:23:58.682Z,110
2018-07-07T05:24:58.930Z,115
2018-07-07T05:25:59.175Z,120
2018-07-07T05:26:59.203Z,120
2018-07-07T05:27:59.167Z,120
2018-07-07T05:28:59.152Z,125
2018-07-07T05:29:58.886Z,125
2018-07-07T05:30:59.135Z,120
2018-07-07T05:31:59.651Z,120
2018-07-07T05:32:58.863Z,120
2018-07-07T05:33:58.608Z,120
2018-07-07T05:34:59.099Z,120
2018-07-07T05:35:59.528Z,120
2018-07-07T05:36:59.092Z,120
2018-07-07T05:37:58.570Z,120
2018-07-07T05:38:58.299Z,115
2018-07-07T05:39:58.288Z,115
2018-07-07T05:40:58.799Z,115
2018-07-07T05:41:59.054Z,110
2018-07-07T05:42:58.780Z,110
2018-07-07T05:43:59.027Z,115
2018-07-07T05:44:58.509Z,115
2018-07-07T05:45:58.767Z,115
2018-07-07T05:46:58.748Z,115
2018-07-07T05:47:58.752Z,120
2018-07-07T05:48:58.732Z,120
2018-07-07T05:49:58.790Z,120
2018-07-07T05:50:58.716Z,125
2018-07-07T05:51:58.726Z,130
2018-07-07T05:52:58.709Z,130
2018-07-07T05:53:58.948Z,135
2018-07-07T05:54:58.683Z,135
2018-07-07T05:55:58.681Z,140
2018-07-07T05:56:58.714Z,145
2018-07-07T05:57:58.930Z,150
2018-07-07T05:58:58.402Z,150
2018-07-07T05:59:58.395Z,150
2018-07-07T06:00:58.896Z,155
2018-07-07T06:01:58.644Z,155
2018-07-07T06:02:58.374Z,155
2018-07-07T06:03:58.622Z,150
2018-07-07T06:04:58.870Z,150
2018-07-07T06:05:58.091Z,150
2018-07-07T06:06:58.605Z,145
2018-07-07T06:07:58.851Z,145
2018-07-07T06:08:58.839Z,140
2018-07-07T06:09:58.325Z,140
2018-07-07T06:10:58.311Z,140
2018-07-07T06:11:58.562Z,140
2018-07-07T06:12:58.815Z,135
2018-07-07T06:13:58.551Z,130
2018-07-07T06:14:58.553Z,125
2018-07-07T06:15:58.282Z,125
2018-07-07T06:16:58.271Z,125
2018-07-07T06:17:58.522Z,125
2018-07-07T06:18:58.000Z,125
2018-07-07T06:19:58.777Z,125
2018-07-07T06:20:58.248Z,125
2018-07-07T06:21:58.762Z,125
2018-07-07T06:22:58.748Z,120
2018-07-07T06:23:58.486Z,120
2018-07-07T06:24:58.740Z,125
2018-07-07T06:25:58.474Z,125
2018-07-07T06:26:58.780Z,125
2018-07-07T06:27:58.210Z,125
2018-07-07T06:28:58.717Z,125
2018-07-07T06:29:58.706Z,125
2018-07-07T06:30:58.443Z,125
2018-07-07T06:31:58.700Z,125
2018-07-07T06:32:58.438Z,125
2018-07-07T06:33:58.426Z,130
2018-07-07T06:34:58.423Z,130
2018-07-07T06:35:58.418Z,130
2018-07-07T06:36:58.671Z,135
2018-07-07T06:37:58.664Z,135
2018-07-07T06:38:58.657Z,140
2018-07-07T06:39:58.140Z,140
2018-07-07T06:40:58.653Z,145
2018-07-07T06:41:58.380Z,160
2018-07-07T06:42:58.377Z,195
2018-07-07T06:43:58.758Z,295
2018-07-07T06:44:58.618Z,350
2018-07-07T06:45:58.620Z,365
2018-07-07T06:46:58.603Z,385
2018-07-07T06:47:58.596Z,385
2018-07-07T06:48:58.653Z,390
2018-07-07T06:49:58.592Z,380
2018-07-07T06:50:57.814Z,380
2018-07-07T06:51:58.327Z,385
2018-07-07T06:52:57.804Z,365
2018-07-07T06:53:59.406Z,370
2018-07-07T06:54:58.576Z,370
2018-07-07T06:55:58.571Z,375
2018-07-07T06:56:58.560Z,395
2018-07-07T06:57:58.307Z,415
2018-07-07T06:58:58.553Z,440
2018-07-07T06:59:58.564Z,465
2018-07-07T07:00:58.291Z,475
2018-07-07T07:01:58.293Z,480
2018-07-07T07:02:58.291Z,485
2018-07-07T07:03:58.566Z,490
2018-07-07T07:04:58.555Z,500
2018-07-07T07:05:58.554Z,505
2018-07-07T07:06:58.290Z,505
2018-07-07T07:07:58.546Z,505
2018-07-07T07:08:58.586Z,515
2018-07-07T07:09:58.029Z,525
2018-07-07T07:10:58.081Z,520
2018-07-07T07:11:58.771Z,520
2018-07-07T07:12:58.333Z,525
2018-07-07T07:13:58.554Z,535
2018-07-07T07:14:58.295Z,540
2018-07-07T07:15:58.560Z,545
2018-07-07T07:16:58.551Z,555
2018-07-07T07:17:58.303Z,560
2018-07-07T07:18:58.555Z,545
2018-07-07T07:19:58.118Z,535
2018-07-07T07:20:58.320Z,540
2018-07-07T07:21:58.568Z,550
2018-07-07T07:22:58.315Z,550
2018-07-07T07:23:58.571Z,540
2018-07-07T07:24:58.582Z,545
2018-07-07T07:25:58.439Z,560
2018-07-07T07:26:58.581Z,575
2018-07-07T07:27:58.077Z,580
2018-07-07T07:28:58.587Z,565
2018-07-07T07:29:58.080Z,540
2018-07-07T07:30:58.604Z,550
2018-07-07T07:31:58.602Z,510
2018-07-07T07:32:58.758Z,480
2018-07-07T07:33:58.097Z,490
2018-07-07T07:34:58.619Z,460
2018-07-07T07:35:58.687Z,425
2018-07-07T07:36:59.100Z,385
2018-07-07T07:37:58.630Z,305
2018-07-07T07:38:58.419Z,230
2018-07-07T07:39:58.685Z,430
2018-07-07T07:40:58.656Z,395
2018-07-07T07:41:58.646Z,370
2018-07-07T07:42:57.883Z,415
2018-07-07T07:43:58.657Z,260
2018-07-07T07:44:58.664Z,195
2018-07-07T07:45:58.660Z,160
2018-07-07T07:46:58.670Z,150
2018-07-07T07:47:58.152Z,125
2018-07-07T07:48:58.413Z,125
2018-07-07T07:49:58.675Z,125
2018-07-07T07:50:58.166Z,135
2018-07-07T07:51:58.681Z,170
2018-07-07T07:52:58.985Z,190
2018-07-07T07:53:58.687Z,225
2018-07-07T07:54:58.685Z,180
2018-07-07T07:55:58.687Z,145
2018-07-07T07:56:58.691Z,145
2018-07-07T07:57:58.689Z,160
2018-07-07T07:58:58.558Z,165
2018-07-07T07:59:58.173Z,165
2018-07-07T08:00:58.178Z,180
2018-07-07T08:01:58.437Z,175
2018-07-07T08:02:58.432Z,170
2018-07-07T08:03:58.432Z,165
2018-07-07T08:04:59.055Z,160
2018-07-07T08:05:58.439Z,155
2018-07-07T08:06:58.437Z,155
2018-07-07T08:07:58.434Z,150
2018-07-07T08:08:58.696Z,150
2018-07-07T08:09:57.919Z,150
2018-07-07T08:10:58.175Z,150
2018-07-07T08:11:58.439Z,150
2018-07-07T08:12:58.693Z,150
2018-07-07T08:13:58.700Z,160
2018-07-07T08:14:58.714Z,150
2018-07-07T08:15:58.182Z,150
2018-07-07T08:16:58.440Z,150
2018-07-07T08:17:58.706Z,150
2018-07-07T08:18:58.448Z,150
2018-07-07T08:19:58.440Z,150
2018-07-07T08:20:58.444Z,150
2018-07-07T08:21:58.701Z,150
2018-07-07T08:22:58.703Z,150
2018-07-07T08:23:58.188Z,145
2018-07-07T08:24:58.700Z,145
2018-07-07T08:25:58.445Z,145
2018-07-07T08:26:58.699Z,140
2018-07-07T08:27:58.444Z,140
2018-07-07T08:28:58.702Z,140
2018-07-07T08:29:58.456Z,140
2018-07-07T08:30:58.702Z,140
2018-07-07T08:31:58.462Z,140
2018-07-07T08:32:58.448Z,140
2018-07-07T08:33:58.187Z,140
2018-07-07T08:34:58.703Z,140
2018-07-07T08:35:58.700Z,140
2018-07-07T08:36:58.760Z,140
2018-07-07T08:37:58.188Z,140
2018-07-07T08:38:58.703Z,140
2018-07-07T08:39:58.439Z,140
2018-07-07T08:40:58.696Z,140
2018-07-07T08:41:59.206Z,140
2018-07-07T08:42:58.438Z,135
2018-07-07T08:43:58.439Z,135
2018-07-07T08:44:58.695Z,135
2018-07-07T08:45:58.439Z,135
2018-07-07T08:46:58.441Z,135
2018-07-07T08:47:58.689Z,135
2018-07-07T08:48:58.699Z,135
2018-07-07T08:49:58.691Z,135
2018-07-07T08:50:58.689Z,135
2018-07-07T08:51:58.694Z,135
2018-07-07T08:52:58.433Z,135
2018-07-07T08:53:58.684Z,140
2018-07-07T08:54:58.682Z,135
2018-07-07T08:55:58.689Z,140
2018-07-07T08:56:58.425Z,140
2018-07-07T08:57:58.425Z,140
2018-07-07T08:58:58.682Z,140
2018-07-07T08:59:58.681Z,135
2018-07-07T09:00:58.160Z,140
2018-07-07T09:01:58.417Z,135
2018-07-07T09:02:58.422Z,135
2018-07-07T09:03:58.417Z,135
2018-07-07T09:04:58.156Z,135
2018-07-07T09:05:58.415Z,135
2018-07-07T09:06:58.680Z,135
2018-07-07T09:07:58.309Z,135
2018-07-07T09:08:58.669Z,135
2018-07-07T09:09:58.413Z,135
2018-07-07T09:10:58.664Z,135
2018-07-07T09:11:58.416Z,135
2018-07-07T09:12:58.405Z,135
2018-07-07T09:13:58.665Z,135
2018-07-07T09:14:58.658Z,135
2018-07-07T09:15:58.147Z,135
2018-07-07T09:16:58.410Z,135
2018-07-07T09:17:58.649Z,135
2018-07-07T09:18:58.711Z,135
2018-07-07T09:19:58.653Z,135
2018-07-07T09:20:58.402Z,135
2018-07-07T09:21:58.653Z,135
2018-07-07T09:22:58.645Z,135
2018-07-07T09:23:58.394Z,140
2018-07-07T09:24:58.386Z,135
2018-07-07T09:25:58.390Z,135
2018-07-07T09:26:58.387Z,135
2018-07-07T09:27:58.641Z,135
2018-07-07T09:28:58.380Z,135
2018-07-07T09:29:58.633Z,135
2018-07-07T09:30:59.041Z,135
2018-07-07T09:31:58.380Z,135
2018-07-07T09:32:58.653Z,135
2018-07-07T09:33:58.373Z,135
2018-07-07T09:34:58.625Z,135
2018-07-07T09:35:57.856Z,135
2018-07-07T09:36:58.372Z,135
2018-07-07T09:37:58.109Z,135
2018-07-07T09:38:58.197Z,135
2018-07-07T09:39:58.361Z,135
2018-07-07T09:40:58.362Z,135
2018-07-07T09:41:57.847Z,135
2018-07-07T09:42:58.367Z,135
2018-07-07T09:43:58.665Z,135
2018-07-07T09:44:58.623Z,135
2018-07-07T09:45:58.615Z,135
2018-07-07T09:46:58.356Z,135
2018-07-07T09:47:58.358Z,135
2018-07-07T09:48:58.359Z,135
2018-07-07T09:49:58.095Z,135
2018-07-07T09:50:58.096Z,135
2018-07-07T09:51:58.611Z,135
2018-07-07T09:52:58.348Z,135
2018-07-07T09:53:58.091Z,135
2018-07-07T09:54:58.612Z,135
2018-07-07T09:55:58.601Z,135
2018-07-07T09:56:58.601Z,135
2018-07-07T09:57:58.352Z,135
2018-07-07T09:58:58.338Z,135
2018-07-07T09:59:58.595Z,135
2018-07-07T10:00:58.343Z,135
2018-07-07T10:01:58.721Z,135
2018-07-07T10:02:58.603Z,135
2018-07-07T10:03:58.338Z,135
2018-07-07T10:04:58.334Z,135
2018-07-07T10:05:58.589Z,135
2018-07-07T10:06:58.589Z,135
2018-07-07T10:07:58.601Z,135
2018-07-07T10:08:58.326Z,135
2018-07-07T10:09:58.583Z,135
2018-07-07T10:10:58.589Z,135
2018-07-07T10:11:58.587Z,135
2018-07-07T10:12:58.593Z,135
2018-07-07T10:13:58.584Z,135
2018-07-07T10:14:58.315Z,135
2018-07-07T10:15:58.570Z,135
2018-07-07T10:16:58.100Z,135
2018-07-07T10:17:58.574Z,135
2018-07-07T10:18:58.570Z,135
2018-07-07T10:19:58.058Z,135
2018-07-07T10:20:58.709Z,135
2018-07-07T10:21:58.053Z,130
2018-07-07T10:22:58.566Z,130
2018-07-07T10:23:58.315Z,130
2018-07-07T10:24:58.567Z,130
2018-07-07T10:25:58.044Z,130
2018-07-07T10:26:58.307Z,130
2018-07-07T10:27:58.559Z,130
2018-07-07T10:28:58.553Z,130
2018-07-07T10:29:58.296Z,130
2018-07-07T10:30:58.039Z,130
2018-07-07T10:31:58.304Z,130
2018-07-07T10:32:58.298Z,130
2018-07-07T10:33:58.043Z,130
2018-07-07T10:34:58.547Z,130
2018-07-07T10:35:58.549Z,130
2018-07-07T10:36:58.289Z,130
2018-07-07T10:37:58.299Z,130
2018-07-07T10:38:58.285Z,130
2018-07-07T10:39:58.294Z,130
2018-07-07T10:40:57.770Z,130
2018-07-07T10:41:58.278Z,130
2018-07-07T10:42:58.548Z,130
2018-07-07T10:43:58.277Z,130
2018-07-07T10:44:58.542Z,130
2018-07-07T10:45:59.334Z,130
2018-07-07T10:46:58.283Z,130
2018-07-07T10:47:58.562Z,130
2018-07-07T10:48:58.274Z,130
2018-07-07T10:49:58.285Z,130
2018-07-07T10:50:58.013Z,130
2018-07-07T10:51:58.015Z,130
2018-07-07T10:52:58.580Z,125
2018-07-07T10:53:58.013Z,125
2018-07-07T10:54:58.530Z,125
2018-07-07T10:55:58.538Z,125
2018-07-07T10:56:58.018Z,125
2018-07-07T10:57:58.521Z,125
2018-07-07T10:58:58.903Z,125
2018-07-07T10:59:58.517Z,125
2018-07-07T11:00:58.517Z,125
2018-07-07T11:01:58.263Z,125
2018-07-07T11:02:58.266Z,125
2018-07-07T11:03:58.258Z,125
2018-07-07T11:04:58.513Z,125
2018-07-07T11:05:58.268Z,125
2018-07-07T11:06:58.513Z,125
2018-07-07T11:07:58.253Z,125
2018-07-07T11:08:58.261Z,125
2018-07-07T11:09:58.518Z,125
2018-07-07T11:10:58.510Z,125
2018-07-07T11:11:58.965Z,125
2018-07-07T11:12:58.505Z,125
2018-07-07T11:13:58.260Z,125
2018-07-07T11:14:58.506Z,125
2018-07-07T11:15:57.997Z,125
2018-07-07T11:16:57.993Z,125
2018-07-07T11:17:58.245Z,125
2018-07-07T11:18:58.507Z,125
2018-07-07T11:19:58.622Z,125
2018-07-07T11:20:58.253Z,125
2018-07-07T11:21:57.990Z,125
2018-07-07T11:22:58.514Z,125
2018-07-07T11:23:58.499Z,130
2018-07-07T11:24:58.037Z,125
2018-07-07T11:25:58.504Z,125
2018-07-07T11:26:58.498Z,125
2018-07-07T11:27:58.240Z,130
2018-07-07T11:28:58.238Z,130
2018-07-07T11:29:58.861Z,130
2018-07-07T11:30:58.503Z,130
2018-07-07T11:31:57.995Z,130
2018-07-07T11:32:58.493Z,130
2018-07-07T11:33:58.237Z,130
2018-07-07T11:34:58.495Z,125
2018-07-07T11:35:57.979Z,120
2018-07-07T11:36:58.586Z,120
2018-07-07T11:37:58.234Z,115
2018-07-07T11:38:58.490Z,115
2018-07-07T11:39:58.231Z,120
2018-07-07T11:40:57.724Z,125
2018-07-07T11:41:57.974Z,125
2018-07-07T11:42:58.488Z,125
2018-07-07T11:43:58.490Z,130
2018-07-07T11:44:58.237Z,125
2018-07-07T11:45:58.231Z,125
2018-07-07T11:46:58.491Z,125
2018-07-07T11:47:58.492Z,125
2018-07-07T11:48:58.229Z,125
2018-07-07T11:49:58.227Z,120
2018-07-07T11:50:58.225Z,120
2018-07-07T11:51:58.487Z,120
2018-07-07T11:52:57.976Z,120
2018-07-07T11:53:58.485Z,120
2018-07-07T11:54:58.230Z,120
2018-07-07T11:55:57.974Z,120
2018-07-07T11:56:58.484Z,120
2018-07-07T11:57:57.971Z,120
2018-07-07T11:58:58.224Z,120
2018-07-07T11:59:58.489Z,120
2018-07-07T12:00:57.966Z,120
2018-07-07T12:01:58.644Z,120
2018-07-07T12:02:58.226Z,120
2018-07-07T12:03:58.477Z,120
2018-07-07T12:04:59.160Z,120
2018-07-07T12:05:57.711Z,120
2018-07-07T12:06:57.965Z,120
2018-07-07T12:08:23.376Z,120
2018-07-07T12:08:57.963Z,120
2018-07-07T12:09:57.961Z,120
2018-07-07T12:10:58.237Z,120
2018-07-07T12:11:57.970Z,120
2018-07-07T12:12:58.481Z,120
2018-07-07T12:13:58.221Z,120
2018-07-07T12:14:58.485Z,115
2018-07-07T12:15:58.221Z,115
2018-07-07T12:16:57.957Z,115
2018-07-07T12:17:58.475Z,115
2018-07-07T12:18:58.479Z,115
2018-07-07T12:19:58.470Z,115
2018-07-07T12:20:58.219Z,115
2018-07-07T12:21:57.961Z,115
2018-07-07T12:22:58.219Z,115
2018-07-07T12:23:58.470Z,115
2018-07-07T12:24:58.770Z,115
2018-07-07T12:25:58.267Z,115
2018-07-07T12:26:58.473Z,115
2018-07-07T12:27:58.219Z,115
2018-07-07T12:28:58.473Z,115
2018-07-07T12:29:58.212Z,115
2018-07-07T12:30:58.215Z,115
2018-07-07T12:31:58.474Z,115
2018-07-07T12:32:58.214Z,115
2018-07-07T12:33:58.211Z,115
2018-07-07T12:34:58.208Z,115
2018-07-07T12:35:58.211Z,115
2018-07-07T12:36:57.962Z,115
2018-07-07T12:37:58.216Z,120
2018-07-07T12:38:57.965Z,120
2018-07-07T12:39:58.465Z,120
2018-07-07T12:40:58.493Z,120
2018-07-07T12:41:58.476Z,120
2018-07-07T12:42:58.464Z,120
2018-07-07T12:43:58.210Z,120
2018-07-07T12:44:58.708Z,120
2018-07-07T12:45:58.880Z,125
2018-07-07T12:46:57.952Z,125
2018-07-07T12:47:58.206Z,135
2018-07-07T12:48:58.211Z,140
2018-07-07T12:49:58.204Z,140
2018-07-07T12:50:58.463Z,145
2018-07-07T12:51:58.384Z,145
2018-07-07T12:52:58.227Z,145
2018-07-07T12:53:57.950Z,140
2018-07-07T12:54:57.949Z,145
2018-07-07T12:55:58.467Z,145
2018-07-07T12:56:58.213Z,145
2018-07-07T12:57:58.465Z,145
2018-07-07T12:58:57.956Z,145
2018-07-07T12:59:58.208Z,145
2018-07-07T13:00:57.949Z,140
2018-07-07T13:01:58.465Z,140
2018-07-07T13:02:58.473Z,135
2018-07-07T13:03:58.460Z,135
2018-07-07T13:04:57.947Z,130
2018-07-07T13:05:58.462Z,125
2018-07-07T13:06:58.561Z,120
2018-07-07T13:07:58.220Z,120
2018-07-07T13:08:58.463Z,115
2018-07-07T13:09:58.210Z,115
2018-07-07T13:10:57.437Z,115
2018-07-07T13:11:58.466Z,115
2018-07-07T13:12:58.205Z,115
2018-07-07T13:13:58.474Z,115
2018-07-07T13:14:58.201Z,115
2018-07-07T13:15:58.487Z,115
2018-07-07T13:16:58.203Z,120
2018-07-07T13:17:58.203Z,120
2018-07-07T13:18:58.203Z,115
2018-07-07T13:19:58.204Z,115
2018-07-07T13:20:58.296Z,115
2018-07-07T13:21:58.465Z,115
2018-07-07T13:22:58.204Z,110
2018-07-07T13:23:57.960Z,115
2018-07-07T13:24:57.692Z,110
2018-07-07T13:25:58.206Z,110
2018-07-07T13:26:57.958Z,110
2018-07-07T13:27:58.209Z,110
2018-07-07T13:28:58.475Z,110
2018-07-07T13:29:58.206Z,110
2018-07-07T13:30:57.696Z,110
2018-07-07T13:31:58.461Z,110
2018-07-07T13:32:58.518Z,110
2018-07-07T13:33:57.962Z,115
2018-07-07T13:34:57.956Z,115
2018-07-07T13:35:58.467Z,115
2018-07-07T13:36:58.207Z,110
2018-07-07T13:37:58.466Z,110
2018-07-07T13:38:58.407Z,110
2018-07-07T13:39:58.209Z,110
2018-07-07T13:40:58.221Z,110
2018-07-07T13:41:58.211Z,110
2018-07-07T13:42:58.469Z,110
2018-07-07T13:43:58.472Z,110
2018-07-07T13:44:58.220Z,110
2018-07-07T13:45:58.477Z,110
2018-07-07T13:46:58.477Z,110
2018-07-07T13:47:57.957Z,110
2018-07-07T13:48:58.475Z,110
2018-07-07T13:49:58.213Z,110
2018-07-07T13:50:58.214Z,110
2018-07-07T13:51:58.478Z,110
2018-07-07T13:52:58.867Z,110
2018-07-07T13:53:58.228Z,110
2018-07-07T13:54:58.476Z,110
2018-07-07T13:55:58.493Z,110
2018-07-07T13:56:57.957Z,110
2018-07-07T13:57:58.468Z,110
2018-07-07T13:58:58.480Z,110
2018-07-07T13:59:57.959Z,110
2018-07-07T14:00:57.962Z,110
2018-07-07T14:01:58.215Z,110
2018-07-07T14:02:58.482Z,110